Estación Meteorológica Peña el Pijo (Robertgarden) [ 02/03/23 03:26:57 CET ]

Fecha Hora Presion(HPa) Temp (°C) Humedad % Rocio (°C) Viento ( m/s) Direccion Lluvia 1Hora(mm) Lluvia 24H(mm) LLuvia Total(mm)
2010-Jan-12 01:01:12 1011.000 5.3 78 1.7 1.5 SSE   2.07 65.26
2010-Jan-12 02:01:44 1010.500 5.2 79 1.8       2.07 65.26
2010-Jan-12 03:03:17 1010.400 4.9 79 1.5       1.55 65.26
2010-Jan-12 04:01:12 1010.000 4.9 80 1.7       0.51 65.26
2010-Jan-12 05:01:11 1009.300 4.9 82 2.0 0.8 ENE     65.26
2010-Jan-12 06:01:15 1009.700 5.4 83 2.7         65.26
2010-Jan-12 07:01:16 1009.300 5.6 82 2.7         65.26
2010-Jan-12 08:01:15 1009.300 4.9 84 2.4         65.26
2010-Jan-12 09:01:15 1009.100 5.9 82 3.0 1.1 S     65.26
2010-Jan-12 10:01:14 1008.000 6.5 80 3.3         65.26
2010-Jan-12 11:01:13 1007.300 8.6 77 4.8         65.26
2010-Jan-12 12:01:11 1006.700 9.8 67 3.9         65.26
2010-Jan-12 13:01:13 1004.600 10.3 61 3.1 1.5 SE     65.26
2010-Jan-12 14:01:15 1003.500 10.3 66 4.2         65.26
2010-Jan-12 15:01:17 1002.400 9.8 68 4.2         65.26
2010-Jan-12 16:01:18 1001.300 7.8 80 4.6     0.51 0.51 65.78
2010-Jan-12 17:01:16 1000.300 7.4 82 4.5     0.51 1.03 66.30
2010-Jan-12 18:01:12 1000.100 7.5 85 5.2       1.03 66.30
2010-Jan-12 19:01:17 999.900 8.3 86 6.1       1.03 66.30
2010-Jan-12 20:01:16 1001.200 7.8 89 6.1       1.03 66.30
2010-Jan-12 21:01:15 1001.600 6.4 88 4.6       1.03 66.30
2010-Jan-12 22:01:13 1002.900 5.9 85 3.5       1.03 66.30
2010-Jan-12 23:01:13 1003.900 5.8 84 3.3       1.03 66.30

Temperatura Máxima:10°    Temperatura Mínima:
Presión Máxima:1011.000 Hpa    Presión Mínima:999.900 Hpa


Volver